PWSweather.com
Personal Weather Stations
Station Observations
IACHARNE2
Acharnes, AthensGR

AcharnesAthensGR

Lat: 38.054318, Lon: 23.443547

Elevation: 640

Station Type: ProWeatherStation

http://www.meteoacharnes.gr

High Low Average
Temperature 53.1°F11.7°F 36.7°F2.6°F 43.6°F6.4°F
Dew Point 43.9°F6.6°F 33.8°F1.0°F 37.5°F3.1°F
Winds 6.9 mph NE11.1 mph NE Calm Calm 2.7 mph 4.3 mph
Wind Gusts 15.9 mph25.6 mph -- 7.9 mph12.7 mph
Humidity 93% 62% 80%
Pressure 30.45 in1031.20 in 30.37 in1028.40 in -
Precipitation 0.12 in3.00 in - -
Hour Temp Dew Point Humidity Winds Wind Gusts Pressure Precip Precip Rate Daily Precip Total
12:00 AM 41.9°F5.5°C 38.3°F3.5°C 87% 4.0 mph E6.4 kmh E 9.2 mph14.8 kmh 30.44 in1030.8 mb 0.00 in0.0 mm 0.00 in0.0 mm 0.00 in0.0 mm
12:05 AM 41.9°F5.5°C 38.3°F3.5°C 87% 4.5 mph ENE7.2 kmh ENE 9.2 mph14.8 kmh 30.44 in1030.8 mb 0.00 in0.0 mm 0.00 in0.0 mm 0.00 in0.0 mm
12:10 AM 41.9°F5.5°C 38.0°F3.3°C 86% 5.7 mph NE9.2 kmh NE 13.0 mph20.9 kmh 30.45 in1031.2 mb 0.00 in0.0 mm 0.00 in0.0 mm 0.00 in0.0 mm
12:15 AM 41.9°F5.5°C 38.0°F3.3°C 86% 5.6 mph ENE9.0 kmh ENE 13.0 mph20.9 kmh 30.44 in1030.8 mb 0.00 in0.0 mm 0.00 in0.0 mm 0.00 in0.0 mm
12:20 AM 41.9°F5.5°C 38.0°F3.3°C 86% 4.7 mph E7.6 kmh E 9.8 mph15.8 kmh 30.45 in1031.2 mb 0.00 in0.0 mm 0.00 in0.0 mm 0.00 in0.0 mm
12:25 AM 42.1°F5.6°C 38.2°F3.4°C 86% 4.0 mph ENE6.4 kmh ENE 9.8 mph15.8 kmh 30.44 in1030.8 mb 0.00 in0.0 mm 0.00 in0.0 mm 0.00 in0.0 mm
12:30 AM 41.9°F5.5°C 38.0°F3.3°C 86% 3.6 mph ENE5.8 kmh ENE 7.6 mph12.2 kmh 30.45 in1031.2 mb 0.00 in0.0 mm 0.00 in0.0 mm 0.00 in0.0 mm
12:35 AM 41.9°F5.5°C 38.0°F3.3°C 86% 4.7 mph ENE7.6 kmh ENE 11.4 mph18.3 kmh 30.45 in1031.2 mb 0.00 in0.0 mm 0.00 in0.0 mm 0.00 in0.0 mm
12:40 AM 41.9°F5.5°C 38.0°F3.3°C 86% 4.6 mph NE7.4 kmh NE 11.4 mph18.3 kmh 30.44 in1030.8 mb 0.00 in0.0 mm 0.00 in0.0 mm 0.00 in0.0 mm
12:45 AM 41.9°F5.5°C 38.0°F3.3°C 86% 3.9 mph NE6.3 kmh NE 9.8 mph15.8 kmh 30.44 in1030.8 mb 0.00 in0.0 mm 0.00 in0.0 mm 0.00 in0.0 mm
12:50 AM 41.9°F5.5°C 38.0°F3.3°C 86% 4.7 mph NE7.6 kmh NE 10.7 mph17.2 kmh 30.44 in1030.8 mb 0.00 in0.0 mm 0.00 in0.0 mm 0.00 in0.0 mm
12:55 AM 41.9°F5.5°C 38.0°F3.3°C 86% 4.3 mph NE6.9 kmh NE 10.7 mph17.2 kmh 30.44 in1030.8 mb 0.00 in0.0 mm 0.00 in0.0 mm 0.00 in0.0 mm
01:00 AM 41.9°F5.5°C 38.0°F3.3°C 86% 3.9 mph NE6.3 kmh NE 10.7 mph17.2 kmh 30.44 in1030.8 mb 0.00 in0.0 mm 0.00 in0.0 mm 0.00 in0.0 mm
01:05 AM 41.9°F5.5°C 38.0°F3.3°C 86% 4.9 mph NE7.9 kmh NE 11.4 mph18.3 kmh 30.45 in1031.2 mb 0.00 in0.0 mm 0.00 in0.0 mm 0.00 in0.0 mm
01:10 AM 41.7°F5.4°C 37.8°F3.2°C 86% 4.4 mph NE7.1 kmh NE 11.4 mph18.3 kmh 30.45 in1031.2 mb 0.00 in0.0 mm 0.00 in0.0 mm 0.00 in0.0 mm
01:15 AM 41.7°F5.4°C 37.8°F3.2°C 86% 3.4 mph NE5.5 kmh NE 6.9 mph11.1 kmh 30.44 in1030.8 mb 0.00 in0.0 mm 0.00 in0.0 mm 0.00 in0.0 mm
01:20 AM 41.5°F5.3°C 37.7°F3.2°C 86% 3.2 mph NE5.1 kmh NE 6.9 mph11.1 kmh 30.44 in1030.8 mb 0.00 in0.0 mm 0.00 in0.0 mm 0.00 in0.0 mm
01:25 AM 41.7°F5.4°C 37.8°F3.2°C 86% 2.4 mph NE3.9 kmh NE 6.9 mph11.1 kmh 30.45 in1031.2 mb 0.00 in0.0 mm 0.00 in0.0 mm 0.00 in0.0 mm
01:30 AM 41.7°F5.4°C 37.8°F3.2°C 86% 2.8 mph ENE4.5 kmh ENE 9.2 mph14.8 kmh 30.45 in1031.2 mb 0.00 in0.0 mm 0.00 in0.0 mm 0.00 in0.0 mm
01:35 AM 41.7°F5.4°C 37.8°F3.2°C 86% 3.5 mph NE5.6 kmh NE 9.2 mph14.8 kmh 30.44 in1030.8 mb 0.00 in0.0 mm 0.00 in0.0 mm 0.00 in0.0 mm
01:40 AM 41.9°F5.5°C 38.0°F3.3°C 86% 2.7 mph NE4.3 kmh NE 6.9 mph11.1 kmh 30.44 in1030.8 mb 0.00 in0.0 mm 0.00 in0.0 mm 0.00 in0.0 mm
01:45 AM 41.7°F5.4°C 37.8°F3.2°C 86% 2.4 mph N3.9 kmh N 12.1 mph19.5 kmh 30.44 in1030.8 mb 0.00 in0.0 mm 0.00 in0.0 mm 0.00 in0.0 mm
01:50 AM 41.9°F5.5°C 38.0°F3.3°C 86% 3.3 mph N5.3 kmh N 12.1 mph19.5 kmh 30.44 in1030.8 mb 0.00 in0.0 mm 0.00 in0.0 mm 0.00 in0.0 mm
01:55 AM 42.1°F5.6°C 38.2°F3.4°C 86% 4.7 mph N7.6 kmh N 10.7 mph17.2 kmh 30.44 in1030.8 mb 0.00 in0.0 mm 0.00 in0.0 mm 0.00 in0.0 mm
02:00 AM 42.4°F5.8°C 38.3°F3.5°C 85% 3.9 mph NNW6.3 kmh NNW 10.7 mph17.2 kmh 30.44 in1030.8 mb 0.00 in0.0 mm 0.00 in0.0 mm 0.00 in0.0 mm
02:05 AM 42.3°F5.7°C 38.1°F3.4°C 85% 2.7 mph NNW4.3 kmh NNW 13.0 mph20.9 kmh 30.44 in1030.8 mb 0.00 in0.0 mm 0.00 in0.0 mm 0.00 in0.0 mm
02:10 AM 42.4°F5.8°C 38.3°F3.5°C 85% 2.6 mph N4.2 kmh N 13.0 mph20.9 kmh 30.43 in1030.5 mb 0.00 in0.0 mm 0.00 in0.0 mm 0.00 in0.0 mm
02:15 AM 42.6°F5.9°C 38.1°F3.4°C 84% 3.6 mph NE5.8 kmh NE 12.1 mph19.5 kmh 30.43 in1030.5 mb 0.00 in0.0 mm 0.00 in0.0 mm 0.00 in0.0 mm
02:20 AM 42.8°F6.0°C 38.0°F3.3°C 83% 5.0 mph NE8.0 kmh NE 12.1 mph19.5 kmh 30.44 in1030.8 mb 0.00 in0.0 mm 0.00 in0.0 mm 0.00 in0.0 mm
02:25 AM 42.8°F6.0°C 38.0°F3.3°C 83% 4.3 mph NE6.9 kmh NE 11.4 mph18.3 kmh 30.43 in1030.5 mb 0.00 in0.0 mm 0.00 in0.0 mm 0.00 in0.0 mm
02:30 AM 42.8°F6.0°C 38.0°F3.3°C 83% 3.7 mph NNE6.0 kmh NNE 10.7 mph17.2 kmh 30.43 in1030.5 mb 0.00 in0.0 mm 0.00 in0.0 mm 0.00 in0.0 mm
02:35 AM 42.8°F6.0°C 37.7°F3.2°C 82% 3.3 mph NNE5.3 kmh NNE 9.2 mph14.8 kmh 30.43 in1030.5 mb 0.00 in0.0 mm 0.00 in0.0 mm 0.00 in0.0 mm
02:40 AM 42.8°F6.0°C 37.7°F3.2°C 82% 2.9 mph NNE4.7 kmh NNE 8.3 mph13.4 kmh 30.43 in1030.5 mb 0.00 in0.0 mm 0.00 in0.0 mm 0.00 in0.0 mm
02:45 AM 42.8°F6.0°C 37.7°F3.2°C 82% 3.4 mph NE5.5 kmh NE 9.2 mph14.8 kmh 30.43 in1030.5 mb 0.00 in0.0 mm 0.00 in0.0 mm 0.00 in0.0 mm
02:50 AM 42.6°F5.9°C 37.5°F3.1°C 82% 3.7 mph NE6.0 kmh NE 9.2 mph14.8 kmh 30.43 in1030.5 mb 0.00 in0.0 mm 0.00 in0.0 mm 0.00 in0.0 mm
02:55 AM 42.1°F5.6°C 37.0°F2.8°C 82% 2.5 mph NE4.0 kmh NE 8.3 mph13.4 kmh 30.43 in1030.5 mb 0.00 in0.0 mm 0.00 in0.0 mm 0.00 in0.0 mm
03:00 AM 42.1°F5.6°C 37.3°F2.9°C 83% 1.2 mph NNW1.9 kmh NNW 8.3 mph13.4 kmh 30.43 in1030.5 mb 0.00 in0.0 mm 0.00 in0.0 mm 0.00 in0.0 mm
03:05 AM 41.9°F5.5°C 37.1°F2.8°C 83% 0.4 mph WNW0.6 kmh WNW 5.4 mph8.7 kmh 30.43 in1030.5 mb 0.00 in0.0 mm 0.00 in0.0 mm 0.00 in0.0 mm
03:10 AM 41.7°F5.4°C 36.9°F2.7°C 83% 0.3 mph W0.5 kmh W 3.1 mph5.0 kmh 30.43 in1030.5 mb 0.00 in0.0 mm 0.00 in0.0 mm 0.00 in0.0 mm
03:15 AM 41.5°F5.3°C 36.8°F2.7°C 83% 0.9 mph SW1.4 kmh SW 5.4 mph8.7 kmh 30.43 in1030.5 mb 0.00 in0.0 mm 0.00 in0.0 mm 0.00 in0.0 mm
03:20 AM 41.2°F5.1°C 36.7°F2.6°C 84% 1.9 mph S3.1 kmh S 7.6 mph12.2 kmh 30.42 in1030.1 mb 0.00 in0.0 mm 0.00 in0.0 mm 0.00 in0.0 mm
03:25 AM 41.2°F5.1°C 36.7°F2.6°C 84% 3.0 mph S4.8 kmh S 7.6 mph12.2 kmh 30.42 in1030.1 mb 0.00 in0.0 mm 0.00 in0.0 mm 0.00 in0.0 mm
03:30 AM 41.0°F5.0°C 36.5°F2.5°C 84% 3.7 mph S6.0 kmh S 8.3 mph13.4 kmh 30.42 in1030.1 mb 0.00 in0.0 mm 0.00 in0.0 mm 0.00 in0.0 mm
03:35 AM 41.0°F5.0°C 36.8°F2.7°C 85% 3.1 mph SE5.0 kmh SE 8.3 mph13.4 kmh 30.42 in1030.1 mb 0.00 in0.0 mm 0.00 in0.0 mm 0.00 in0.0 mm
03:40 AM 41.0°F5.0°C 36.8°F2.7°C 85% 3.1 mph ESE5.0 kmh ESE 6.9 mph11.1 kmh 30.42 in1030.1 mb 0.00 in0.0 mm 0.00 in0.0 mm 0.00 in0.0 mm
03:45 AM 41.0°F5.0°C 36.8°F2.7°C 85% 2.9 mph ESE4.7 kmh ESE 6.9 mph11.1 kmh 30.42 in1030.1 mb 0.00 in0.0 mm 0.00 in0.0 mm 0.00 in0.0 mm
03:50 AM 41.0°F5.0°C 36.8°F2.7°C 85% 1.3 mph ESE2.1 kmh ESE 6.9 mph11.1 kmh 30.42 in1030.1 mb 0.00 in0.0 mm 0.00 in0.0 mm 0.00 in0.0 mm
03:55 AM 41.2°F5.1°C 37.0°F2.8°C 85% 0.5 mph WNW0.8 kmh WNW 3.1 mph5.0 kmh 30.41 in1029.8 mb 0.00 in0.0 mm 0.00 in0.0 mm 0.00 in0.0 mm
04:00 AM 40.8°F4.9°C 36.7°F2.6°C 85% 0.9 mph WSW1.4 kmh WSW 3.8 mph6.1 kmh 30.41 in1029.8 mb 0.00 in0.0 mm 0.00 in0.0 mm 0.00 in0.0 mm
04:05 AM 40.6°F4.8°C 36.5°F2.5°C 85% 1.1 mph WSW1.8 kmh WSW 3.8 mph6.1 kmh 30.41 in1029.8 mb 0.00 in0.0 mm 0.00 in0.0 mm 0.00 in0.0 mm
04:10 AM 40.5°F4.7°C 36.3°F2.4°C 85% 0.6 mph SW1.0 kmh SW 3.8 mph6.1 kmh 30.42 in1030.1 mb 0.00 in0.0 mm 0.00 in0.0 mm 0.00 in0.0 mm
04:15 AM 40.3°F4.6°C 36.1°F2.3°C 85% 0.1 mph W0.2 kmh W 1.6 mph2.6 kmh 30.42 in1030.1 mb 0.00 in0.0 mm 0.00 in0.0 mm 0.00 in0.0 mm
04:20 AM 40.1°F4.5°C 36.0°F2.2°C 85% Calm Calm 3.1 mph5.0 kmh 30.42 in1030.1 mb 0.00 in0.0 mm 0.00 in0.0 mm 0.00 in0.0 mm
04:25 AM 39.9°F4.4°C 36.1°F2.3°C 86% 0.8 mph NE1.3 kmh NE 3.8 mph6.1 kmh 30.41 in1029.8 mb 0.00 in0.0 mm 0.00 in0.0 mm 0.00 in0.0 mm
04:30 AM 39.6°F4.2°C 35.7°F2.1°C 86% 1.1 mph NNW1.8 kmh NNW 3.8 mph6.1 kmh 30.41 in1029.8 mb 0.00 in0.0 mm 0.00 in0.0 mm 0.00 in0.0 mm
04:35 AM 39.2°F4.0°C 35.4°F1.9°C 86% 0.7 mph W1.1 kmh W 3.8 mph6.1 kmh 30.41 in1029.8 mb 0.00 in0.0 mm 0.00 in0.0 mm 0.00 in0.0 mm
04:40 AM 39.0°F3.9°C 35.2°F1.8°C 86% 1.7 mph WSW2.7 kmh WSW 7.6 mph12.2 kmh 30.41 in1029.8 mb 0.00 in0.0 mm 0.00 in0.0 mm 0.00 in0.0 mm
04:45 AM 39.0°F3.9°C 35.5°F1.9°C 87% 2.9 mph WSW4.7 kmh WSW 7.6 mph12.2 kmh 30.41 in1029.8 mb 0.00 in0.0 mm 0.00 in0.0 mm 0.00 in0.0 mm
04:50 AM 39.0°F3.9°C 35.5°F1.9°C 87% 1.7 mph WSW2.7 kmh WSW 7.6 mph12.2 kmh 30.41 in1029.8 mb 0.00 in0.0 mm 0.00 in0.0 mm 0.00 in0.0 mm
04:55 AM 39.0°F3.9°C 35.8°F2.1°C 88% 0.5 mph WSW0.8 kmh WSW 3.1 mph5.0 kmh 30.41 in1029.8 mb 0.00 in0.0 mm 0.00 in0.0 mm 0.00 in0.0 mm
05:00 AM 39.0°F3.9°C 35.8°F2.1°C 88% 0.5 mph WSW0.8 kmh WSW 3.1 mph5.0 kmh 30.41 in1029.8 mb 0.00 in0.0 mm 0.00 in0.0 mm 0.00 in0.0 mm
05:05 AM 38.7°F3.7°C 35.4°F1.9°C 88% 0.8 mph N1.3 kmh N 3.1 mph5.0 kmh 30.41 in1029.8 mb 0.00 in0.0 mm 0.00 in0.0 mm 0.00 in0.0 mm
05:10 AM 39.0°F3.9°C 35.8°F2.1°C 88% 1.0 mph N1.6 kmh N 3.1 mph5.0 kmh 30.41 in1029.8 mb 0.00 in0.0 mm 0.00 in0.0 mm 0.00 in0.0 mm
05:15 AM 38.8°F3.8°C 35.6°F2.0°C 88% 0.4 mph N0.6 kmh N 3.1 mph5.0 kmh 30.40 in1029.5 mb 0.00 in0.0 mm 0.00 in0.0 mm 0.00 in0.0 mm
05:20 AM 38.8°F3.8°C 35.6°F2.0°C 88% Calm Calm 2.2 mph3.5 kmh 30.41 in1029.8 mb 0.00 in0.0 mm 0.00 in0.0 mm 0.00 in0.0 mm
05:25 AM 38.7°F3.7°C 35.7°F2.1°C 89% 0.4 mph WSW0.6 kmh WSW 3.1 mph5.0 kmh 30.41 in1029.8 mb 0.00 in0.0 mm 0.00 in0.0 mm 0.00 in0.0 mm
05:30 AM 38.5°F3.6°C 35.5°F1.9°C 89% 0.9 mph W1.4 kmh W 3.8 mph6.1 kmh 30.41 in1029.8 mb 0.00 in0.0 mm 0.00 in0.0 mm 0.00 in0.0 mm
05:35 AM 38.3°F3.5°C 35.4°F1.9°C 89% 0.7 mph W1.1 kmh W 3.8 mph6.1 kmh 30.41 in1029.8 mb 0.00 in0.0 mm 0.00 in0.0 mm 0.00 in0.0 mm
05:40 AM 38.5°F3.6°C 35.5°F1.9°C 89% 0.9 mph S1.4 kmh S 4.5 mph7.2 kmh 30.41 in1029.8 mb 0.00 in0.0 mm 0.00 in0.0 mm 0.00 in0.0 mm
05:45 AM 38.5°F3.6°C 35.5°F1.9°C 89% 1.6 mph S2.6 kmh S 4.5 mph7.2 kmh 30.40 in1029.5 mb 0.00 in0.0 mm 0.00 in0.0 mm 0.00 in0.0 mm
05:50 AM 38.5°F3.6°C 35.5°F1.9°C 89% 1.8 mph SSW2.9 kmh SSW 5.4 mph8.7 kmh 30.40 in1029.5 mb 0.00 in0.0 mm 0.00 in0.0 mm 0.00 in0.0 mm
05:55 AM 38.5°F3.6°C 35.5°F1.9°C 89% 2.2 mph S3.5 kmh S 6.0 mph9.7 kmh 30.41 in1029.8 mb 0.00 in0.0 mm 0.00 in0.0 mm 0.00 in0.0 mm
06:00 AM 38.5°F3.6°C 35.8°F2.1°C 90% 1.4 mph SSE2.3 kmh SSE 6.0 mph9.7 kmh 30.41 in1029.8 mb 0.00 in0.0 mm 0.00 in0.0 mm 0.00 in0.0 mm
06:05 AM 38.8°F3.8°C 36.2°F2.3°C 90% 0.3 mph SSE0.5 kmh SSE 3.1 mph5.0 kmh 30.41 in1029.8 mb 0.00 in0.0 mm 0.00 in0.0 mm 0.00 in0.0 mm
06:10 AM 38.7°F3.7°C 36.0°F2.2°C 90% 0.3 mph W0.5 kmh W 2.2 mph3.5 kmh 30.41 in1029.8 mb 0.00 in0.0 mm 0.00 in0.0 mm 0.00 in0.0 mm
06:15 AM 38.5°F3.6°C 35.8°F2.1°C 90% 0.6 mph W1.0 kmh W 2.2 mph3.5 kmh 30.41 in1029.8 mb 0.00 in0.0 mm 0.00 in0.0 mm 0.00 in0.0 mm
06:20 AM 38.3°F3.5°C 35.6°F2.0°C 90% 0.5 mph W0.8 kmh W 2.2 mph3.5 kmh 30.41 in1029.8 mb 0.00 in0.0 mm 0.00 in0.0 mm 0.00 in0.0 mm
06:25 AM 38.1°F3.4°C 35.5°F1.9°C 90% 0.8 mph W1.3 kmh W 4.5 mph7.2 kmh 30.41 in1029.8 mb 0.00 in0.0 mm 0.00 in0.0 mm 0.00 in0.0 mm
06:30 AM 38.1°F3.4°C 35.5°F1.9°C 90% 2.1 mph W3.4 kmh W 6.0 mph9.7 kmh 30.41 in1029.8 mb 0.00 in0.0 mm 0.00 in0.0 mm 0.00 in0.0 mm
06:35 AM 38.1°F3.4°C 35.5°F1.9°C 90% 2.3 mph WSW3.7 kmh WSW 6.0 mph9.7 kmh 30.41 in1029.8 mb 0.00 in0.0 mm 0.00 in0.0 mm 0.00 in0.0 mm
06:40 AM 38.1°F3.4°C 35.5°F1.9°C 90% 1.0 mph WSW1.6 kmh WSW 6.0 mph9.7 kmh 30.42 in1030.1 mb 0.00 in0.0 mm 0.00 in0.0 mm 0.00 in0.0 mm
06:45 AM 38.1°F3.4°C 35.5°F1.9°C 90% 1.1 mph NNW1.8 kmh NNW 3.8 mph6.1 kmh 30.42 in1030.1 mb 0.00 in0.0 mm 0.00 in0.0 mm 0.00 in0.0 mm
06:50 AM 37.9°F3.3°C 35.3°F1.8°C 90% 1.6 mph NW2.6 kmh NW 3.8 mph6.1 kmh 30.42 in1030.1 mb 0.00 in0.0 mm 0.00 in0.0 mm 0.00 in0.0 mm
06:55 AM 38.1°F3.4°C 35.5°F1.9°C 90% 1.1 mph WNW1.8 kmh WNW 3.8 mph6.1 kmh 30.42 in1030.1 mb 0.00 in0.0 mm 0.00 in0.0 mm 0.00 in0.0 mm
07:00 AM 37.9°F3.3°C 35.3°F1.8°C 90% 0.8 mph NW1.3 kmh NW 3.8 mph6.1 kmh 30.41 in1029.8 mb 0.00 in0.0 mm 0.00 in0.0 mm 0.00 in0.0 mm
07:05 AM 37.9°F3.3°C 35.6°F2.0°C 91% 0.4 mph NW0.6 kmh NW 3.8 mph6.1 kmh 30.41 in1029.8 mb 0.00 in0.0 mm 0.00 in0.0 mm 0.00 in0.0 mm
07:10 AM 37.9°F3.3°C 35.6°F2.0°C 91% Calm Calm -- 30.42 in1030.1 mb 0.00 in0.0 mm 0.00 in0.0 mm 0.00 in0.0 mm
07:15 AM 37.8°F3.2°C 35.4°F1.9°C 91% Calm Calm -- 30.41 in1029.8 mb 0.00 in0.0 mm 0.00 in0.0 mm 0.00 in0.0 mm
07:20 AM 37.8°F3.2°C 35.4°F1.9°C 91% 0.1 mph SW0.2 kmh SW 3.1 mph5.0 kmh 30.42 in1030.1 mb 0.00 in0.0 mm 0.00 in0.0 mm 0.00 in0.0 mm
07:25 AM 37.8°F3.2°C 35.4°F1.9°C 91% 1.2 mph WNW1.9 kmh WNW 4.5 mph7.2 kmh 30.42 in1030.1 mb 0.00 in0.0 mm 0.00 in0.0 mm 0.00 in0.0 mm
07:30 AM 37.6°F3.1°C 35.2°F1.8°C 91% 1.4 mph NW2.3 kmh NW 4.5 mph7.2 kmh 30.42 in1030.1 mb 0.00 in0.0 mm 0.00 in0.0 mm 0.00 in0.0 mm
07:35 AM 37.4°F3.0°C 35.0°F1.7°C 91% 1.2 mph NNW1.9 kmh NNW 3.8 mph6.1 kmh 30.42 in1030.1 mb 0.00 in0.0 mm 0.00 in0.0 mm 0.00 in0.0 mm
07:40 AM 37.4°F3.0°C 35.0°F1.7°C 91% 1.4 mph NNW2.3 kmh NNW 3.8 mph6.1 kmh 30.42 in1030.1 mb 0.00 in0.0 mm 0.00 in0.0 mm 0.00 in0.0 mm
07:45 AM 37.4°F3.0°C 35.0°F1.7°C 91% 0.9 mph NW1.4 kmh NW 4.5 mph7.2 kmh 30.42 in1030.1 mb 0.00 in0.0 mm 0.00 in0.0 mm 0.00 in0.0 mm
07:50 AM 37.4°F3.0°C 35.0°F1.7°C 91% 2.5 mph NW4.0 kmh NW 6.9 mph11.1 kmh 30.43 in1030.5 mb 0.00 in0.0 mm 0.00 in0.0 mm 0.00 in0.0 mm
07:55 AM 37.2°F2.9°C 34.8°F1.6°C 91% 3.9 mph NW6.3 kmh NW 6.9 mph11.1 kmh 30.42 in1030.1 mb 0.00 in0.0 mm 0.00 in0.0 mm 0.00 in0.0 mm
08:00 AM 37.0°F2.8°C 34.7°F1.5°C 91% 3.5 mph NW5.6 kmh NW 6.9 mph11.1 kmh 30.42 in1030.1 mb 0.00 in0.0 mm 0.00 in0.0 mm 0.00 in0.0 mm
08:05 AM 37.0°F2.8°C 34.7°F1.5°C 91% 2.9 mph NW4.7 kmh NW 6.0 mph9.7 kmh 30.42 in1030.1 mb 0.00 in0.0 mm 0.00 in0.0 mm 0.00 in0.0 mm
08:10 AM 36.9°F2.7°C 34.5°F1.4°C 91% 3.1 mph NW5.0 kmh NW 6.9 mph11.1 kmh 30.43 in1030.5 mb 0.00 in0.0 mm 0.00 in0.0 mm 0.00 in0.0 mm
08:15 AM 37.0°F2.8°C 34.7°F1.5°C 91% 4.3 mph NW6.9 kmh NW 6.9 mph11.1 kmh 30.43 in1030.5 mb 0.00 in0.0 mm 0.00 in0.0 mm 0.00 in0.0 mm
08:20 AM 37.2°F2.9°C 35.1°F1.7°C 92% 4.3 mph NW6.9 kmh NW 7.6 mph12.2 kmh 30.43 in1030.5 mb 0.00 in0.0 mm 0.00 in0.0 mm 0.00 in0.0 mm
08:25 AM 37.4°F3.0°C 35.3°F1.8°C 92% 4.0 mph NW6.4 kmh NW 7.6 mph12.2 kmh 30.43 in1030.5 mb 0.00 in0.0 mm 0.00 in0.0 mm 0.00 in0.0 mm
08:30 AM 37.9°F3.3°C 35.8°F2.1°C 92% 3.1 mph NW5.0 kmh NW 7.6 mph12.2 kmh 30.43 in1030.5 mb 0.00 in0.0 mm 0.00 in0.0 mm 0.00 in0.0 mm
08:35 AM 37.9°F3.3°C 35.8°F2.1°C 92% 1.4 mph NW2.3 kmh NW 7.6 mph12.2 kmh 30.43 in1030.5 mb 0.00 in0.0 mm 0.00 in0.0 mm 0.00 in0.0 mm
08:40 AM 38.1°F3.4°C 36.0°F2.2°C 92% 1.8 mph NW2.9 kmh NW 6.0 mph9.7 kmh 30.43 in1030.5 mb 0.00 in0.0 mm 0.00 in0.0 mm 0.00 in0.0 mm
08:45 AM 38.5°F3.6°C 36.4°F2.4°C 92% 2.0 mph NW3.2 kmh NW 6.0 mph9.7 kmh 30.43 in1030.5 mb 0.00 in0.0 mm 0.00 in0.0 mm 0.00 in0.0 mm
08:50 AM 39.2°F4.0°C 37.4°F3.0°C 93% 0.5 mph NW0.8 kmh NW 6.0 mph9.7 kmh 30.43 in1030.5 mb 0.00 in0.0 mm 0.00 in0.0 mm 0.00 in0.0 mm
08:55 AM 39.9°F4.4°C 38.1°F3.4°C 93% 0.1 mph WSW0.2 kmh WSW 3.8 mph6.1 kmh 30.43 in1030.5 mb 0.00 in0.0 mm 0.00 in0.0 mm 0.00 in0.0 mm
09:00 AM 40.6°F4.8°C 38.8°F3.8°C 93% 0.7 mph NW1.1 kmh NW 6.0 mph9.7 kmh 30.43 in1030.5 mb 0.00 in0.0 mm 0.00 in0.0 mm 0.00 in0.0 mm
09:05 AM 41.5°F5.3°C 39.7°F4.3°C 93% 0.9 mph NW1.4 kmh NW 6.0 mph9.7 kmh 30.43 in1030.5 mb 0.00 in0.0 mm 0.00 in0.0 mm 0.00 in0.0 mm
09:10 AM 42.3°F5.7°C 40.4°F4.7°C 93% 0.3 mph WNW0.5 kmh WNW 3.8 mph6.1 kmh 30.43 in1030.5 mb 0.00 in0.0 mm 0.00 in0.0 mm 0.00 in0.0 mm
09:15 AM 43.2°F6.2°C 41.0°F5.0°C 92% 0.5 mph W0.8 kmh W 3.1 mph5.0 kmh 30.43 in1030.5 mb 0.00 in0.0 mm 0.00 in0.0 mm 0.00 in0.0 mm
09:20 AM 43.7°F6.5°C 41.5°F5.3°C 92% 0.9 mph W1.4 kmh W 3.1 mph5.0 kmh 30.43 in1030.5 mb 0.00 in0.0 mm 0.00 in0.0 mm 0.00 in0.0 mm
09:25 AM 44.1°F6.7°C 41.6°F5.3°C 91% 0.5 mph W0.8 kmh W 3.1 mph5.0 kmh 30.43 in1030.5 mb 0.00 in0.0 mm 0.00 in0.0 mm 0.00 in0.0 mm
09:30 AM 45.0°F7.2°C 42.2°F5.7°C 90% 0.7 mph WNW1.1 kmh WNW 5.4 mph8.7 kmh 30.43 in1030.5 mb 0.00 in0.0 mm 0.00 in0.0 mm 0.00 in0.0 mm
09:35 AM 45.5°F7.5°C 42.5°F5.8°C 89% 1.5 mph W2.4 kmh W 5.4 mph8.7 kmh 30.43 in1030.5 mb 0.00 in0.0 mm 0.00 in0.0 mm 0.00 in0.0 mm
09:40 AM 46.4°F8.0°C 43.3°F6.3°C 89% 1.7 mph WSW2.7 kmh WSW 5.4 mph8.7 kmh 30.43 in1030.5 mb 0.00 in0.0 mm 0.00 in0.0 mm 0.00 in0.0 mm
09:45 AM 46.9°F8.3°C 43.6°F6.4°C 88% 2.0 mph WSW3.2 kmh WSW 6.0 mph9.7 kmh 30.42 in1030.1 mb 0.00 in0.0 mm 0.00 in0.0 mm 0.00 in0.0 mm
09:50 AM 47.5°F8.6°C 43.5°F6.4°C 86% 2.4 mph WSW3.9 kmh WSW 6.0 mph9.7 kmh 30.43 in1030.5 mb 0.00 in0.0 mm 0.00 in0.0 mm 0.00 in0.0 mm
09:55 AM 48.2°F9.0°C 43.9°F6.6°C 85% 3.0 mph WSW4.8 kmh WSW 6.9 mph11.1 kmh 30.43 in1030.5 mb 0.00 in0.0 mm 0.00 in0.0 mm 0.00 in0.0 mm
10:00 AM 48.7°F9.3°C 43.8°F6.6°C 83% 3.4 mph WSW5.5 kmh WSW 6.9 mph11.1 kmh 30.43 in1030.5 mb 0.00 in0.0 mm 0.00 in0.0 mm 0.00 in0.0 mm
10:05 AM 49.1°F9.5°C 43.5°F6.4°C 81% 3.6 mph SW5.8 kmh SW 7.6 mph12.2 kmh 30.43 in1030.5 mb 0.00 in0.0 mm 0.00 in0.0 mm 0.00 in0.0 mm
10:10 AM 49.1°F9.5°C 43.2°F6.2°C 80% 3.3 mph WSW5.3 kmh WSW 7.6 mph12.2 kmh 30.43 in1030.5 mb 0.00 in0.0 mm 0.00 in0.0 mm 0.00 in0.0 mm
10:15 AM 49.3°F9.6°C 43.1°F6.2°C 79% 2.9 mph WSW4.7 kmh WSW 7.6 mph12.2 kmh 30.43 in1030.5 mb 0.00 in0.0 mm 0.00 in0.0 mm 0.00 in0.0 mm
10:20 AM 49.5°F9.7°C 42.9°F6.1°C 78% 3.0 mph SW4.8 kmh SW 6.9 mph11.1 kmh 30.43 in1030.5 mb 0.00 in0.0 mm 0.00 in0.0 mm 0.00 in0.0 mm
10:25 AM 49.5°F9.7°C 42.2°F5.7°C 76% 3.7 mph SW6.0 kmh SW 8.3 mph13.4 kmh 30.43 in1030.5 mb 0.00 in0.0 mm 0.00 in0.0 mm 0.00 in0.0 mm
10:30 AM 49.5°F9.7°C 41.5°F5.3°C 74% 4.3 mph SW6.9 kmh SW 8.3 mph13.4 kmh 30.43 in1030.5 mb 0.00 in0.0 mm 0.00 in0.0 mm 0.00 in0.0 mm
10:35 AM 49.3°F9.6°C 41.0°F5.0°C 73% 4.0 mph SW6.4 kmh SW 9.8 mph15.8 kmh 30.43 in1030.5 mb 0.00 in0.0 mm 0.00 in0.0 mm 0.00 in0.0 mm
10:40 AM 49.5°F9.7°C 41.2°F5.1°C 73% 3.5 mph SW5.6 kmh SW 9.8 mph15.8 kmh 30.43 in1030.5 mb 0.00 in0.0 mm 0.00 in0.0 mm 0.00 in0.0 mm
10:45 AM 49.8°F9.9°C 41.5°F5.3°C 73% 3.3 mph SW5.3 kmh SW 9.2 mph14.8 kmh 30.43 in1030.5 mb 0.00 in0.0 mm 0.00 in0.0 mm 0.00 in0.0 mm
10:50 AM 49.8°F9.9°C 41.2°F5.1°C 72% 2.7 mph SW4.3 kmh SW 7.6 mph12.2 kmh 30.43 in1030.5 mb 0.00 in0.0 mm 0.00 in0.0 mm 0.00 in0.0 mm
10:55 AM 49.8°F9.9°C 41.2°F5.1°C 72% 2.2 mph SSW3.5 kmh SSW 6.0 mph9.7 kmh 30.43 in1030.5 mb 0.00 in0.0 mm 0.00 in0.0 mm 0.00 in0.0 mm
11:00 AM 49.5°F9.7°C 40.5°F4.7°C 71% 2.3 mph S3.7 kmh S 5.4 mph8.7 kmh 30.42 in1030.1 mb 0.00 in0.0 mm 0.00 in0.0 mm 0.00 in0.0 mm
11:05 AM 49.1°F9.5°C 39.7°F4.3°C 70% 3.7 mph SW6.0 kmh SW 9.8 mph15.8 kmh 30.43 in1030.5 mb 0.00 in0.0 mm 0.00 in0.0 mm 0.00 in0.0 mm
11:10 AM 49.1°F9.5°C 39.7°F4.3°C 70% 4.8 mph SW7.7 kmh SW 9.8 mph15.8 kmh 30.43 in1030.5 mb 0.00 in0.0 mm 0.00 in0.0 mm 0.00 in0.0 mm
11:15 AM 49.3°F9.6°C 40.3°F4.6°C 71% 4.7 mph SW7.6 kmh SW 9.2 mph14.8 kmh 30.43 in1030.5 mb 0.00 in0.0 mm 0.00 in0.0 mm 0.00 in0.0 mm
11:20 AM 49.5°F9.7°C 40.5°F4.7°C 71% 4.8 mph SW7.7 kmh SW 9.2 mph14.8 kmh 30.43 in1030.5 mb 0.00 in0.0 mm 0.00 in0.0 mm 0.00 in0.0 mm
11:25 AM 49.8°F9.9°C 40.8°F4.9°C 71% 4.4 mph SW7.1 kmh SW 7.6 mph12.2 kmh 30.43 in1030.5 mb 0.00 in0.0 mm 0.00 in0.0 mm 0.00 in0.0 mm
11:30 AM 50.0°F10.0°C 40.6°F4.8°C 70% 4.0 mph SW6.4 kmh SW 8.3 mph13.4 kmh 30.43 in1030.5 mb 0.00 in0.0 mm 0.00 in0.0 mm 0.00 in0.0 mm
11:35 AM 50.0°F10.0°C 40.6°F4.8°C 70% 3.4 mph SW5.5 kmh SW 8.3 mph13.4 kmh 30.42 in1030.1 mb 0.00 in0.0 mm 0.00 in0.0 mm 0.00 in0.0 mm
11:40 AM 50.2°F10.1°C 40.8°F4.9°C 70% 2.8 mph SW4.5 kmh SW 7.6 mph12.2 kmh 30.42 in1030.1 mb 0.00 in0.0 mm 0.00 in0.0 mm 0.00 in0.0 mm
11:50 AM 50.4°F10.2°C 40.6°F4.8°C 69% 2.9 mph SW4.7 kmh SW 7.6 mph12.2 kmh 30.42 in1030.1 mb 0.00 in0.0 mm 0.00 in0.0 mm 0.00 in0.0 mm
11:55 AM 50.4°F10.2°C 40.2°F4.6°C 68% 3.8 mph SW6.1 kmh SW 7.6 mph12.2 kmh 30.41 in1029.8 mb 0.00 in0.0 mm 0.00 in0.0 mm 0.00 in0.0 mm
12:00 PM 50.4°F10.2°C 40.6°F4.8°C 69% 3.5 mph SW5.6 kmh SW 7.6 mph12.2 kmh 30.41 in1029.8 mb 0.00 in0.0 mm 0.00 in0.0 mm 0.00 in0.0 mm
12:05 PM 50.4°F10.2°C 40.2°F4.6°C 68% 2.9 mph SW4.7 kmh SW 7.6 mph12.2 kmh 30.41 in1029.8 mb 0.00 in0.0 mm 0.00 in0.0 mm 0.00 in0.0 mm
12:10 PM 50.5°F10.3°C 40.4°F4.7°C 68% 2.4 mph SW3.9 kmh SW 7.6 mph12.2 kmh 30.41 in1029.8 mb 0.00 in0.0 mm 0.00 in0.0 mm 0.00 in0.0 mm
12:15 PM 50.7°F10.4°C 40.6°F4.8°C 68% 2.7 mph SW4.3 kmh SW 7.6 mph12.2 kmh 30.40 in1029.5 mb 0.00 in0.0 mm 0.00 in0.0 mm 0.00 in0.0 mm
12:20 PM 50.5°F10.3°C 40.0°F4.4°C 67% 3.0 mph SW4.8 kmh SW 7.6 mph12.2 kmh 30.40 in1029.5 mb 0.00 in0.0 mm 0.00 in0.0 mm 0.00 in0.0 mm
12:25 PM 50.4°F10.2°C 39.8°F4.3°C 67% 3.4 mph SW5.5 kmh SW 6.9 mph11.1 kmh 30.40 in1029.5 mb 0.00 in0.0 mm 0.00 in0.0 mm 0.00 in0.0 mm
12:30 PM 50.2°F10.1°C 39.7°F4.3°C 67% 3.2 mph SW5.1 kmh SW 6.9 mph11.1 kmh 30.40 in1029.5 mb 0.00 in0.0 mm 0.00 in0.0 mm 0.00 in0.0 mm
12:35 PM 50.2°F10.1°C 39.7°F4.3°C 67% 2.0 mph SW3.2 kmh SW 6.0 mph9.7 kmh 30.40 in1029.5 mb 0.00 in0.0 mm 0.00 in0.0 mm 0.00 in0.0 mm
12:40 PM 50.2°F10.1°C 39.7°F4.3°C 67% 1.1 mph WSW1.8 kmh WSW 4.5 mph7.2 kmh 30.39 in1029.1 mb 0.00 in0.0 mm 0.00 in0.0 mm 0.00 in0.0 mm
12:45 PM 50.2°F10.1°C 39.7°F4.3°C 67% 1.3 mph WNW2.1 kmh WNW 6.9 mph11.1 kmh 30.39 in1029.1 mb 0.00 in0.0 mm 0.00 in0.0 mm 0.00 in0.0 mm
12:50 PM 50.2°F10.1°C 39.7°F4.3°C 67% 1.8 mph SW2.9 kmh SW 6.9 mph11.1 kmh 30.39 in1029.1 mb 0.00 in0.0 mm 0.00 in0.0 mm 0.00 in0.0 mm
12:55 PM 50.5°F10.3°C 40.0°F4.4°C 67% 2.4 mph SE3.9 kmh SE 9.2 mph14.8 kmh 30.39 in1029.1 mb 0.00 in0.0 mm 0.00 in0.0 mm 0.00 in0.0 mm
01:00 PM 50.9°F10.5°C 40.3°F4.6°C 67% 3.9 mph E6.3 kmh E 10.7 mph17.2 kmh 30.38 in1028.8 mb 0.01 in0.3 mm 0.01 in0.3 mm 0.01 in0.3 mm
01:05 PM 51.3°F10.7°C 40.7°F4.8°C 67% 4.3 mph ENE6.9 kmh ENE 10.7 mph17.2 kmh 30.38 in1028.8 mb 0.01 in0.3 mm 0.00 in0.0 mm 0.01 in0.3 mm
01:10 PM 51.4°F10.8°C 40.9°F4.9°C 67% 3.3 mph NE5.3 kmh NE 10.7 mph17.2 kmh 30.39 in1029.1 mb 0.01 in0.3 mm 0.00 in0.0 mm 0.01 in0.3 mm
01:15 PM 51.8°F11.0°C 40.8°F4.9°C 66% 2.8 mph NE4.5 kmh NE 13.6 mph21.9 kmh 30.38 in1028.8 mb 0.01 in0.3 mm 0.00 in0.0 mm 0.01 in0.3 mm
01:20 PM 52.2°F11.2°C 40.8°F4.9°C 65% 3.5 mph SSW5.6 kmh SSW 13.6 mph21.9 kmh 30.38 in1028.8 mb 0.01 in0.3 mm 0.00 in0.0 mm 0.01 in0.3 mm
01:25 PM 52.7°F11.5°C 41.3°F5.2°C 65% 4.5 mph SSW7.2 kmh SSW 10.7 mph17.2 kmh 30.38 in1028.8 mb 0.01 in0.3 mm 0.00 in0.0 mm 0.01 in0.3 mm
01:30 PM 53.1°F11.7°C 41.2°F5.1°C 64% 4.4 mph SSW7.1 kmh SSW 9.2 mph14.8 kmh 30.37 in1028.4 mb 0.01 in0.3 mm 0.00 in0.0 mm 0.01 in0.3 mm
01:35 PM 52.9°F11.6°C 40.6°F4.8°C 63% 3.4 mph SW5.5 kmh SW 9.2 mph14.8 kmh 30.38 in1028.8 mb 0.01 in0.3 mm 0.00 in0.0 mm 0.01 in0.3 mm
01:40 PM 52.5°F11.4°C 40.3°F4.6°C 63% 2.8 mph WSW4.5 kmh WSW 9.2 mph14.8 kmh 30.37 in1028.4 mb 0.01 in0.3 mm 0.00 in0.0 mm 0.01 in0.3 mm
01:45 PM 52.3°F11.3°C 40.5°F4.7°C 64% 2.6 mph SSW4.2 kmh SSW 7.6 mph12.2 kmh 30.37 in1028.4 mb 0.01 in0.3 mm 0.00 in0.0 mm 0.01 in0.3 mm
01:50 PM 52.2°F11.2°C 40.4°F4.7°C 64% 1.9 mph SSW3.1 kmh SSW 7.6 mph12.2 kmh 30.38 in1028.8 mb 0.01 in0.3 mm 0.00 in0.0 mm 0.01 in0.3 mm
01:55 PM 52.3°F11.3°C 40.5°F4.7°C 64% 1.3 mph SSW2.1 kmh SSW 6.0 mph9.7 kmh 30.37 in1028.4 mb 0.01 in0.3 mm 0.00 in0.0 mm 0.01 in0.3 mm
02:00 PM 52.7°F11.5°C 40.5°F4.7°C 63% 3.1 mph S5.0 kmh S 13.0 mph20.9 kmh 30.37 in1028.4 mb 0.00 in0.0 mm 0.00 in0.0 mm 0.01 in0.3 mm
02:05 PM 52.5°F11.4°C 39.9°F4.4°C 62% 4.5 mph S7.2 kmh S 13.0 mph20.9 kmh 30.37 in1028.4 mb 0.00 in0.0 mm 0.00 in0.0 mm 0.01 in0.3 mm
02:10 PM 52.2°F11.2°C 39.5°F4.2°C 62% 3.3 mph NE5.3 kmh NE 9.2 mph14.8 kmh 30.37 in1028.4 mb 0.00 in0.0 mm 0.00 in0.0 mm 0.01 in0.3 mm
02:15 PM 51.6°F10.9°C 39.0°F3.9°C 62% 5.0 mph N8.0 kmh N 14.5 mph23.3 kmh 30.37 in1028.4 mb 0.00 in0.0 mm 0.00 in0.0 mm 0.01 in0.3 mm
02:20 PM 51.3°F10.7°C 39.1°F3.9°C 63% 4.2 mph NW6.8 kmh NW 14.5 mph23.3 kmh 30.37 in1028.4 mb 0.00 in0.0 mm 0.00 in0.0 mm 0.01 in0.3 mm
02:25 PM 50.9°F10.5°C 38.8°F3.8°C 63% 2.4 mph NW3.9 kmh NW 10.7 mph17.2 kmh 30.37 in1028.4 mb 0.00 in0.0 mm 0.00 in0.0 mm 0.01 in0.3 mm
02:30 PM 50.9°F10.5°C 39.2°F4.0°C 64% 3.9 mph N6.3 kmh N 14.5 mph23.3 kmh 30.37 in1028.4 mb 0.00 in0.0 mm 0.00 in0.0 mm 0.01 in0.3 mm
02:35 PM 50.5°F10.3°C 39.2°F4.0°C 65% 4.3 mph NNW6.9 kmh NNW 14.5 mph23.3 kmh 30.37 in1028.4 mb 0.00 in0.0 mm 0.00 in0.0 mm 0.01 in0.3 mm
02:40 PM 50.0°F10.0°C 38.7°F3.7°C 65% 4.4 mph WNW7.1 kmh WNW 12.1 mph19.5 kmh 30.37 in1028.4 mb 0.00 in0.0 mm 0.00 in0.0 mm 0.01 in0.3 mm
02:45 PM 50.0°F10.0°C 38.7°F3.7°C 65% 4.5 mph NW7.2 kmh NW 12.1 mph19.5 kmh 30.37 in1028.4 mb 0.00 in0.0 mm 0.00 in0.0 mm 0.01 in0.3 mm
02:50 PM 49.8°F9.9°C 38.5°F3.6°C 65% 4.4 mph NW7.1 kmh NW 12.1 mph19.5 kmh 30.37 in1028.4 mb 0.00 in0.0 mm 0.00 in0.0 mm 0.01 in0.3 mm
02:55 PM 49.6°F9.8°C 38.0°F3.3°C 64% 5.1 mph NW8.2 kmh NW 13.0 mph20.9 kmh 30.37 in1028.4 mb 0.00 in0.0 mm 0.00 in0.0 mm 0.01 in0.3 mm
03:00 PM 49.6°F9.8°C 38.4°F3.6°C 65% 4.6 mph WNW7.4 kmh WNW 13.0 mph20.9 kmh 30.37 in1028.4 mb 0.00 in0.0 mm 0.00 in0.0 mm 0.01 in0.3 mm
03:05 PM 49.6°F9.8°C 38.4°F3.6°C 65% 3.4 mph WNW5.5 kmh WNW 10.7 mph17.2 kmh 30.37 in1028.4 mb 0.00 in0.0 mm 0.00 in0.0 mm 0.01 in0.3 mm
03:10 PM 49.5°F9.7°C 38.2°F3.4°C 65% 4.3 mph WNW6.9 kmh WNW 12.1 mph19.5 kmh 30.37 in1028.4 mb 0.00 in0.0 mm 0.00 in0.0 mm 0.01 in0.3 mm
03:15 PM 49.5°F9.7°C 38.2°F3.4°C 65% 4.9 mph NW7.9 kmh NW 13.0 mph20.9 kmh 30.37 in1028.4 mb 0.00 in0.0 mm 0.00 in0.0 mm 0.01 in0.3 mm
03:20 PM 49.3°F9.6°C 38.0°F3.3°C 65% 4.8 mph NW7.7 kmh NW 13.0 mph20.9 kmh 30.37 in1028.4 mb 0.00 in0.0 mm 0.00 in0.0 mm 0.01 in0.3 mm
03:25 PM 49.5°F9.7°C 38.2°F3.4°C 65% 4.5 mph NW7.2 kmh NW 11.4 mph18.3 kmh 30.37 in1028.4 mb 0.00 in0.0 mm 0.00 in0.0 mm 0.01 in0.3 mm
03:30 PM 49.6°F9.8°C 38.4°F3.6°C 65% 4.1 mph NW6.6 kmh NW 11.4 mph18.3 kmh 30.37 in1028.4 mb 0.00 in0.0 mm 0.00 in0.0 mm 0.01 in0.3 mm
03:35 PM 50.0°F10.0°C 38.3°F3.5°C 64% 3.9 mph NW6.3 kmh NW 11.4 mph18.3 kmh 30.37 in1028.4 mb 0.00 in0.0 mm 0.00 in0.0 mm 0.01 in0.3 mm
03:40 PM 50.0°F10.0°C 38.3°F3.5°C 64% 3.4 mph NW5.5 kmh NW 8.3 mph13.4 kmh 30.37 in1028.4 mb 0.00 in0.0 mm 0.00 in0.0 mm 0.01 in0.3 mm
03:45 PM 50.0°F10.0°C 38.3°F3.5°C 64% 2.8 mph W4.5 kmh W 7.6 mph12.2 kmh 30.37 in1028.4 mb 0.00 in0.0 mm 0.00 in0.0 mm 0.01 in0.3 mm
03:50 PM 50.0°F10.0°C 38.3°F3.5°C 64% 2.0 mph WSW3.2 kmh WSW 6.9 mph11.1 kmh 30.37 in1028.4 mb 0.00 in0.0 mm 0.00 in0.0 mm 0.01 in0.3 mm
03:55 PM 49.6°F9.8°C 38.0°F3.3°C 64% 2.1 mph NW3.4 kmh NW 6.9 mph11.1 kmh 30.37 in1028.4 mb 0.00 in0.0 mm 0.00 in0.0 mm 0.01 in0.3 mm
04:00 PM 49.5°F9.7°C 37.8°F3.2°C 64% 4.0 mph NW6.4 kmh NW 10.7 mph17.2 kmh 30.37 in1028.4 mb 0.00 in0.0 mm 0.00 in0.0 mm 0.01 in0.3 mm
04:05 PM 49.1°F9.5°C 37.9°F3.3°C 65% 5.2 mph NW8.4 kmh NW 11.4 mph18.3 kmh 30.37 in1028.4 mb 0.00 in0.0 mm 0.00 in0.0 mm 0.01 in0.3 mm
04:10 PM 49.1°F9.5°C 37.9°F3.3°C 65% 4.5 mph NW7.2 kmh NW 11.4 mph18.3 kmh 30.38 in1028.8 mb 0.00 in0.0 mm 0.00 in0.0 mm 0.01 in0.3 mm
04:15 PM 48.9°F9.4°C 38.1°F3.4°C 66% 3.1 mph NW5.0 kmh NW 9.2 mph14.8 kmh 30.38 in1028.8 mb 0.00 in0.0 mm 0.00 in0.0 mm 0.01 in0.3 mm
04:20 PM 48.7°F9.3°C 37.9°F3.3°C 66% 2.9 mph NW4.7 kmh NW 9.2 mph14.8 kmh 30.38 in1028.8 mb 0.00 in0.0 mm 0.00 in0.0 mm 0.01 in0.3 mm
04:25 PM 48.7°F9.3°C 37.9°F3.3°C 66% 4.0 mph N6.4 kmh N 13.0 mph20.9 kmh 30.38 in1028.8 mb 0.00 in0.0 mm 0.00 in0.0 mm 0.01 in0.3 mm
04:30 PM 49.1°F9.5°C 38.6°F3.7°C 67% 4.2 mph N6.8 kmh N 13.0 mph20.9 kmh 30.38 in1028.8 mb 0.00 in0.0 mm 0.00 in0.0 mm 0.01 in0.3 mm
04:35 PM 49.1°F9.5°C 38.2°F3.4°C 66% 3.9 mph NNW6.3 kmh NNW 11.4 mph18.3 kmh 30.38 in1028.8 mb 0.00 in0.0 mm 0.00 in0.0 mm 0.01 in0.3 mm
04:40 PM 49.3°F9.6°C 38.4°F3.6°C 66% 3.3 mph NNW5.3 kmh NNW 12.1 mph19.5 kmh 30.38 in1028.8 mb 0.00 in0.0 mm 0.00 in0.0 mm 0.01 in0.3 mm
04:45 PM 49.3°F9.6°C 38.4°F3.6°C 66% 3.3 mph NNE5.3 kmh NNE 12.1 mph19.5 kmh 30.38 in1028.8 mb 0.00 in0.0 mm 0.00 in0.0 mm 0.01 in0.3 mm
04:50 PM 49.3°F9.6°C 38.4°F3.6°C 66% 5.7 mph NE9.2 kmh NE 14.5 mph23.3 kmh 30.38 in1028.8 mb 0.00 in0.0 mm 0.00 in0.0 mm 0.01 in0.3 mm
04:55 PM 48.6°F9.2°C 37.7°F3.2°C 66% 5.3 mph NE8.5 kmh NE 14.5 mph23.3 kmh 30.38 in1028.8 mb 0.00 in0.0 mm 0.00 in0.0 mm 0.01 in0.3 mm
05:00 PM 48.6°F9.2°C 37.7°F3.2°C 66% 3.0 mph NE4.8 kmh NE 7.6 mph12.2 kmh 30.38 in1028.8 mb 0.00 in0.0 mm 0.00 in0.0 mm 0.01 in0.3 mm
05:05 PM 48.4°F9.1°C 37.9°F3.3°C 67% 4.2 mph NE6.8 kmh NE 12.1 mph19.5 kmh 30.38 in1028.8 mb 0.00 in0.0 mm 0.00 in0.0 mm 0.01 in0.3 mm
05:10 PM 48.2°F9.0°C 38.1°F3.4°C 68% 5.6 mph NE9.0 kmh NE 12.1 mph19.5 kmh 30.38 in1028.8 mb 0.00 in0.0 mm 0.00 in0.0 mm 0.01 in0.3 mm
05:15 PM 47.7°F8.7°C 37.6°F3.1°C 68% 4.6 mph NE7.4 kmh NE 12.1 mph19.5 kmh 30.38 in1028.8 mb 0.00 in0.0 mm 0.00 in0.0 mm 0.01 in0.3 mm
05:20 PM 47.7°F8.7°C 38.0°F3.3°C 69% 4.4 mph NE7.1 kmh NE 13.0 mph20.9 kmh 30.38 in1028.8 mb 0.00 in0.0 mm 0.00 in0.0 mm 0.01 in0.3 mm
05:25 PM 47.5°F8.6°C 37.8°F3.2°C 69% 4.6 mph NE7.4 kmh NE 13.0 mph20.9 kmh 30.38 in1028.8 mb 0.00 in0.0 mm 0.00 in0.0 mm 0.01 in0.3 mm
05:30 PM 47.3°F8.5°C 37.7°F3.2°C 69% 4.0 mph NE6.4 kmh NE 13.0 mph20.9 kmh 30.38 in1028.8 mb 0.00 in0.0 mm 0.00 in0.0 mm 0.01 in0.3 mm
05:35 PM 46.6°F8.1°C 37.0°F2.8°C 69% 3.5 mph NE5.6 kmh NE 9.2 mph14.8 kmh 30.38 in1028.8 mb 0.00 in0.0 mm 0.00 in0.0 mm 0.01 in0.3 mm
05:40 PM 46.4°F8.0°C 37.2°F2.9°C 70% 3.8 mph NNE6.1 kmh NNE 12.1 mph19.5 kmh 30.37 in1028.4 mb 0.00 in0.0 mm 0.00 in0.0 mm 0.01 in0.3 mm
05:45 PM 46.0°F7.8°C 36.8°F2.7°C 70% 4.1 mph NNW6.6 kmh NNW 12.1 mph19.5 kmh 30.37 in1028.4 mb 0.00 in0.0 mm 0.00 in0.0 mm 0.01 in0.3 mm
05:50 PM 45.5°F7.5°C 36.7°F2.6°C 71% 3.9 mph NW6.3 kmh NW 7.6 mph12.2 kmh 30.37 in1028.4 mb 0.00 in0.0 mm 0.00 in0.0 mm 0.01 in0.3 mm
05:55 PM 45.3°F7.4°C 36.5°F2.5°C 71% 3.8 mph NNW6.1 kmh NNW 8.3 mph13.4 kmh 30.37 in1028.4 mb 0.00 in0.0 mm 0.00 in0.0 mm 0.01 in0.3 mm
06:00 PM 45.0°F7.2°C 36.1°F2.3°C 71% 3.4 mph NNW5.5 kmh NNW 8.3 mph13.4 kmh 30.38 in1028.8 mb 0.00 in0.0 mm 0.00 in0.0 mm 0.01 in0.3 mm
06:05 PM 44.8°F7.1°C 36.3°F2.4°C 72% 3.2 mph N5.1 kmh N 8.3 mph13.4 kmh 30.38 in1028.8 mb 0.00 in0.0 mm 0.00 in0.0 mm 0.01 in0.3 mm
06:10 PM 44.8°F7.1°C 36.3°F2.4°C 72% 3.1 mph N5.0 kmh N 8.3 mph13.4 kmh 30.38 in1028.8 mb 0.00 in0.0 mm 0.00 in0.0 mm 0.01 in0.3 mm
06:15 PM 44.6°F7.0°C 36.1°F2.3°C 72% 2.8 mph N4.5 kmh N 7.6 mph12.2 kmh 30.38 in1028.8 mb 0.00 in0.0 mm 0.00 in0.0 mm 0.01 in0.3 mm
06:20 PM 44.8°F7.1°C 36.3°F2.4°C 72% 2.6 mph N4.2 kmh N 7.6 mph12.2 kmh 30.38 in1028.8 mb 0.00 in0.0 mm 0.00 in0.0 mm 0.01 in0.3 mm
06:25 PM 44.6°F7.0°C 36.5°F2.5°C 73% 3.0 mph NNE4.8 kmh NNE 7.6 mph12.2 kmh 30.38 in1028.8 mb 0.00 in0.0 mm 0.00 in0.0 mm 0.01 in0.3 mm
06:30 PM 44.4°F6.9°C 36.7°F2.6°C 74% 3.0 mph ENE4.8 kmh ENE 7.6 mph12.2 kmh 30.38 in1028.8 mb 0.00 in0.0 mm 0.00 in0.0 mm 0.01 in0.3 mm
06:35 PM 44.4°F6.9°C 36.7°F2.6°C 74% 2.9 mph NNE4.7 kmh NNE 9.2 mph14.8 kmh 30.38 in1028.8 mb 0.00 in0.0 mm 0.00 in0.0 mm 0.01 in0.3 mm
06:40 PM 44.1°F6.7°C 36.7°F2.6°C 75% 4.7 mph NE7.6 kmh NE 13.0 mph20.9 kmh 30.38 in1028.8 mb 0.00 in0.0 mm 0.00 in0.0 mm 0.01 in0.3 mm
06:45 PM 44.2°F6.8°C 37.2°F2.9°C 76% 5.7 mph NE9.2 kmh NE 13.0 mph20.9 kmh 30.38 in1028.8 mb 0.00 in0.0 mm 0.00 in0.0 mm 0.01 in0.3 mm
06:50 PM 44.1°F6.7°C 37.3°F2.9°C 77% 5.7 mph NE9.2 kmh NE 14.5 mph23.3 kmh 30.39 in1029.1 mb 0.00 in0.0 mm 0.00 in0.0 mm 0.01 in0.3 mm
06:55 PM 43.9°F6.6°C 37.5°F3.1°C 78% 6.7 mph NE10.8 kmh NE 15.9 mph25.6 kmh 30.39 in1029.1 mb 0.00 in0.0 mm 0.00 in0.0 mm 0.01 in0.3 mm
07:00 PM 43.7°F6.5°C 37.3°F2.9°C 78% 6.9 mph NE11.1 kmh NE 15.9 mph25.6 kmh 30.39 in1029.1 mb 0.00 in0.0 mm 0.00 in0.0 mm 0.01 in0.3 mm
07:05 PM 43.5°F6.4°C 37.1°F2.8°C 78% 6.4 mph NE10.3 kmh NE 13.0 mph20.9 kmh 30.39 in1029.1 mb 0.00 in0.0 mm 0.00 in0.0 mm 0.01 in0.3 mm
07:10 PM 43.5°F6.4°C 37.4°F3.0°C 79% 6.4 mph NE10.3 kmh NE 14.5 mph23.3 kmh 30.39 in1029.1 mb 0.00 in0.0 mm 0.00 in0.0 mm 0.01 in0.3 mm
07:15 PM 43.5°F6.4°C 37.4°F3.0°C 79% 5.8 mph NE9.3 kmh NE 14.5 mph23.3 kmh 30.39 in1029.1 mb 0.00 in0.0 mm 0.00 in0.0 mm 0.01 in0.3 mm
07:20 PM 43.3°F6.3°C 37.3°F2.9°C 79% 5.7 mph NE9.2 kmh NE 15.9 mph25.6 kmh 30.39 in1029.1 mb 0.00 in0.0 mm 0.00 in0.0 mm 0.01 in0.3 mm
07:25 PM 43.3°F6.3°C 37.3°F2.9°C 79% 6.5 mph NE10.5 kmh NE 15.9 mph25.6 kmh 30.39 in1029.1 mb 0.00 in0.0 mm 0.00 in0.0 mm 0.01 in0.3 mm
07:30 PM 43.3°F6.3°C 37.3°F2.9°C 79% 5.6 mph NE9.0 kmh NE 13.6 mph21.9 kmh 30.40 in1029.5 mb 0.00 in0.0 mm 0.00 in0.0 mm 0.01 in0.3 mm
07:35 PM 43.2°F6.2°C 37.1°F2.8°C 79% 4.9 mph NE7.9 kmh NE 10.7 mph17.2 kmh 30.40 in1029.5 mb 0.00 in0.0 mm 0.00 in0.0 mm 0.01 in0.3 mm
07:40 PM 43.0°F6.1°C 36.9°F2.7°C 79% 5.0 mph NE8.0 kmh NE 11.4 mph18.3 kmh 30.40 in1029.5 mb 0.00 in0.0 mm 0.00 in0.0 mm 0.01 in0.3 mm
07:45 PM 42.8°F6.0°C 37.1°F2.8°C 80% 4.3 mph ENE6.9 kmh ENE 11.4 mph18.3 kmh 30.40 in1029.5 mb 0.00 in0.0 mm 0.00 in0.0 mm 0.01 in0.3 mm
07:50 PM 42.8°F6.0°C 37.1°F2.8°C 80% 3.9 mph ENE6.3 kmh ENE 8.3 mph13.4 kmh 30.40 in1029.5 mb 0.00 in0.0 mm 0.00 in0.0 mm 0.01 in0.3 mm
07:55 PM 42.6°F5.9°C 36.9°F2.7°C 80% 4.2 mph ENE6.8 kmh ENE 10.7 mph17.2 kmh 30.40 in1029.5 mb 0.00 in0.0 mm 0.00 in0.0 mm 0.01 in0.3 mm
08:00 PM 42.4°F5.8°C 36.7°F2.6°C 80% 4.8 mph NE7.7 kmh NE 11.4 mph18.3 kmh 30.40 in1029.5 mb 0.00 in0.0 mm 0.00 in0.0 mm 0.01 in0.3 mm
08:05 PM 42.3°F5.7°C 36.5°F2.5°C 80% 5.1 mph NE8.2 kmh NE 11.4 mph18.3 kmh 30.40 in1029.5 mb 0.00 in0.0 mm 0.00 in0.0 mm 0.01 in0.3 mm
08:10 PM 42.1°F5.6°C 36.7°F2.6°C 81% 4.3 mph NE6.9 kmh NE 10.7 mph17.2 kmh 30.41 in1029.8 mb 0.00 in0.0 mm 0.00 in0.0 mm 0.01 in0.3 mm
08:15 PM 42.3°F5.7°C 36.9°F2.7°C 81% 3.2 mph NW5.1 kmh NW 10.7 mph17.2 kmh 30.41 in1029.8 mb 0.00 in0.0 mm 0.00 in0.0 mm 0.01 in0.3 mm
08:20 PM 42.1°F5.6°C 36.7°F2.6°C 81% 2.6 mph N4.2 kmh N 9.2 mph14.8 kmh 30.41 in1029.8 mb 0.00 in0.0 mm 0.00 in0.0 mm 0.01 in0.3 mm
08:25 PM 42.1°F5.6°C 36.7°F2.6°C 81% 2.8 mph NE4.5 kmh NE 7.6 mph12.2 kmh 30.41 in1029.8 mb 0.00 in0.0 mm 0.00 in0.0 mm 0.01 in0.3 mm
08:30 PM 42.1°F5.6°C 36.7°F2.6°C 81% 2.6 mph NE4.2 kmh NE 7.6 mph12.2 kmh 30.41 in1029.8 mb 0.00 in0.0 mm 0.00 in0.0 mm 0.01 in0.3 mm
08:35 PM 41.7°F5.4°C 36.3°F2.4°C 81% 1.7 mph NW2.7 kmh NW 5.4 mph8.7 kmh 30.41 in1029.8 mb 0.00 in0.0 mm 0.00 in0.0 mm 0.01 in0.3 mm
08:40 PM 41.7°F5.4°C 36.3°F2.4°C 81% 1.1 mph WNW1.8 kmh WNW 4.5 mph7.2 kmh 30.41 in1029.8 mb 0.00 in0.0 mm 0.00 in0.0 mm 0.01 in0.3 mm
08:45 PM 41.5°F5.3°C 36.5°F2.5°C 82% 1.2 mph ENE1.9 kmh ENE 3.8 mph6.1 kmh 30.41 in1029.8 mb 0.00 in0.0 mm 0.00 in0.0 mm 0.01 in0.3 mm
08:50 PM 41.4°F5.2°C 36.3°F2.4°C 82% 1.4 mph E2.3 kmh E 6.0 mph9.7 kmh 30.41 in1029.8 mb 0.00 in0.0 mm 0.00 in0.0 mm 0.01 in0.3 mm
08:55 PM 41.2°F5.1°C 36.1°F2.3°C 82% 0.9 mph W1.4 kmh W 6.0 mph9.7 kmh 30.41 in1029.8 mb 0.00 in0.0 mm 0.00 in0.0 mm 0.01 in0.3 mm
09:00 PM 40.8°F4.9°C 35.8°F2.1°C 82% 0.4 mph W0.6 kmh W 6.0 mph9.7 kmh 30.41 in1029.8 mb 0.00 in0.0 mm 0.00 in0.0 mm 0.01 in0.3 mm
09:05 PM 40.6°F4.8°C 35.6°F2.0°C 82% Calm Calm 1.6 mph2.6 kmh 30.41 in1029.8 mb 0.00 in0.0 mm 0.00 in0.0 mm 0.01 in0.3 mm
09:10 PM 40.5°F4.7°C 35.7°F2.1°C 83% 0.4 mph SSW0.6 kmh SSW 2.2 mph3.5 kmh 30.41 in1029.8 mb 0.00 in0.0 mm 0.00 in0.0 mm 0.01 in0.3 mm
09:15 PM 40.5°F4.7°C 35.7°F2.1°C 83% 0.5 mph SW0.8 kmh SW 2.2 mph3.5 kmh 30.41 in1029.8 mb 0.00 in0.0 mm 0.00 in0.0 mm 0.01 in0.3 mm
09:20 PM 40.1°F4.5°C 35.4°F1.9°C 83% 0.1 mph WSW0.2 kmh WSW 3.8 mph6.1 kmh 30.42 in1030.1 mb 0.00 in0.0 mm 0.00 in0.0 mm 0.01 in0.3 mm
09:25 PM 40.1°F4.5°C 35.7°F2.1°C 84% 0.5 mph N0.8 kmh N 3.8 mph6.1 kmh 30.42 in1030.1 mb 0.00 in0.0 mm 0.00 in0.0 mm 0.01 in0.3 mm
09:30 PM 40.1°F4.5°C 35.7°F2.1°C 84% 0.6 mph NE1.0 kmh NE 3.8 mph6.1 kmh 30.42 in1030.1 mb 0.00 in0.0 mm 0.00 in0.0 mm 0.01 in0.3 mm
09:35 PM 39.9°F4.4°C 35.5°F1.9°C 84% 0.3 mph N0.5 kmh N 2.2 mph3.5 kmh 30.42 in1030.1 mb 0.00 in0.0 mm 0.00 in0.0 mm 0.01 in0.3 mm
09:40 PM 39.9°F4.4°C 35.5°F1.9°C 84% 0.3 mph NNW0.5 kmh NNW 2.2 mph3.5 kmh 30.42 in1030.1 mb 0.00 in0.0 mm 0.00 in0.0 mm 0.01 in0.3 mm
09:45 PM 39.7°F4.3°C 35.6°F2.0°C 85% 0.2 mph N0.3 kmh N 2.2 mph3.5 kmh 30.42 in1030.1 mb 0.00 in0.0 mm 0.00 in0.0 mm 0.01 in0.3 mm
09:50 PM 39.4°F4.1°C 35.3°F1.8°C 85% 0.1 mph SW0.2 kmh SW 1.6 mph2.6 kmh 30.42 in1030.1 mb 0.00 in0.0 mm 0.00 in0.0 mm 0.01 in0.3 mm
09:55 PM 39.2°F4.0°C 35.1°F1.7°C 85% 0.3 mph SW0.5 kmh SW 4.5 mph7.2 kmh 30.42 in1030.1 mb 0.00 in0.0 mm 0.00 in0.0 mm 0.01 in0.3 mm
10:00 PM 39.0°F3.9°C 34.9°F1.6°C 85% 1.1 mph SW1.8 kmh SW 4.5 mph7.2 kmh 30.42 in1030.1 mb 0.00 in0.0 mm 0.00 in0.0 mm 0.01 in0.3 mm
10:05 PM 38.8°F3.8°C 35.0°F1.7°C 86% 0.9 mph SW1.4 kmh SW 3.8 mph6.1 kmh 30.42 in1030.1 mb 0.00 in0.0 mm 0.00 in0.0 mm 0.01 in0.3 mm
10:10 PM 38.7°F3.7°C 34.8°F1.6°C 86% 0.6 mph NW1.0 kmh NW 5.4 mph8.7 kmh 30.42 in1030.1 mb 0.00 in0.0 mm 0.00 in0.0 mm 0.01 in0.3 mm
10:15 PM 38.5°F3.6°C 34.7°F1.5°C 86% 2.4 mph NW3.9 kmh NW 6.9 mph11.1 kmh 30.42 in1030.1 mb 0.00 in0.0 mm 0.00 in0.0 mm 0.01 in0.3 mm
10:20 PM 38.5°F3.6°C 34.7°F1.5°C 86% 1.9 mph NW3.1 kmh NW 6.9 mph11.1 kmh 30.42 in1030.1 mb 0.00 in0.0 mm 0.00 in0.0 mm 0.01 in0.3 mm
10:25 PM 38.3°F3.5°C 34.8°F1.6°C 87% 0.4 mph WSW0.6 kmh WSW 3.1 mph5.0 kmh 30.42 in1030.1 mb 0.00 in0.0 mm 0.00 in0.0 mm 0.01 in0.3 mm
10:30 PM 38.3°F3.5°C 34.8°F1.6°C 87% 0.9 mph WNW1.4 kmh WNW 5.4 mph8.7 kmh 30.42 in1030.1 mb 0.00 in0.0 mm 0.00 in0.0 mm 0.01 in0.3 mm
10:35 PM 37.8°F3.2°C 34.2°F1.2°C 87% 1.0 mph NW1.6 kmh NW 5.4 mph8.7 kmh 30.42 in1030.1 mb 0.00 in0.0 mm 0.00 in0.0 mm 0.01 in0.3 mm
10:40 PM 37.8°F3.2°C 34.2°F1.2°C 87% 1.5 mph WNW2.4 kmh WNW 6.0 mph9.7 kmh 30.42 in1030.1 mb 0.00 in0.0 mm 0.00 in0.0 mm 0.01 in0.3 mm
10:45 PM 37.6°F3.1°C 34.4°F1.3°C 88% 1.5 mph NW2.4 kmh NW 6.0 mph9.7 kmh 30.42 in1030.1 mb 0.00 in0.0 mm 0.00 in0.0 mm 0.01 in0.3 mm
10:50 PM 37.6°F3.1°C 34.4°F1.3°C 88% 1.1 mph NW1.8 kmh NW 5.4 mph8.7 kmh 30.42 in1030.1 mb 0.00 in0.0 mm 0.00 in0.0 mm 0.01 in0.3 mm
10:55 PM 37.4°F3.0°C 34.2°F1.2°C 88% 1.4 mph NW2.3 kmh NW 6.0 mph9.7 kmh 30.42 in1030.1 mb 0.00 in0.0 mm 0.00 in0.0 mm 0.01 in0.3 mm
11:00 PM 37.2°F2.9°C 34.0°F1.1°C 88% 1.0 mph NW1.6 kmh NW 6.0 mph9.7 kmh 30.41 in1029.8 mb 0.00 in0.0 mm 0.00 in0.0 mm 0.01 in0.3 mm
11:05 PM 37.0°F2.8°C 33.8°F1.0°C 88% 0.8 mph NW1.3 kmh NW 5.4 mph8.7 kmh 30.42 in1030.1 mb 0.00 in0.0 mm 0.00 in0.0 mm 0.01 in0.3 mm
11:10 PM 37.2°F2.9°C 34.0°F1.1°C 88% 1.8 mph NW2.9 kmh NW 7.6 mph12.2 kmh 30.41 in1029.8 mb 0.00 in0.0 mm 0.00 in0.0 mm 0.01 in0.3 mm
11:15 PM 36.9°F2.7°C 33.9°F1.1°C 89% 2.7 mph NW4.3 kmh NW 7.6 mph12.2 kmh 30.42 in1030.1 mb 0.00 in0.0 mm 0.00 in0.0 mm 0.01 in0.3 mm
11:20 PM 36.7°F2.6°C 33.8°F1.0°C 89% 1.4 mph NW2.3 kmh NW 6.9 mph11.1 kmh 30.42 in1030.1 mb 0.00 in0.0 mm 0.00 in0.0 mm 0.01 in0.3 mm
11:25 PM 36.7°F2.6°C 33.8°F1.0°C 89% 1.0 mph NNE1.6 kmh NNE 5.4 mph8.7 kmh 30.41 in1029.8 mb 0.00 in0.0 mm 0.00 in0.0 mm 0.01 in0.3 mm
11:30 PM 36.9°F2.7°C 33.9°F1.1°C 89% 1.8 mph N2.9 kmh N 6.0 mph9.7 kmh 30.41 in1029.8 mb 0.00 in0.0 mm 0.00 in0.0 mm 0.01 in0.3 mm
11:35 PM 36.9°F2.7°C 34.2°F1.2°C 90% 1.0 mph WNW1.6 kmh WNW 6.0 mph9.7 kmh 30.41 in1029.8 mb 0.00 in0.0 mm 0.00 in0.0 mm 0.01 in0.3 mm
11:40 PM 36.9°F2.7°C 34.2°F1.2°C 90% Calm Calm 1.6 mph2.6 kmh 30.41 in1029.8 mb 0.00 in0.0 mm 0.00 in0.0 mm 0.01 in0.3 mm
11:45 PM 36.9°F2.7°C 34.2°F1.2°C 90% Calm Calm 2.2 mph3.5 kmh 30.41 in1029.8 mb 0.00 in0.0 mm 0.00 in0.0 mm 0.01 in0.3 mm
11:50 PM 37.0°F2.8°C 34.4°F1.3°C 90% 0.5 mph W0.8 kmh W 6.0 mph9.7 kmh 30.41 in1029.8 mb 0.00 in0.0 mm 0.00 in0.0 mm 0.01 in0.3 mm
11:55 PM 37.0°F2.8°C 34.4°F1.3°C 90% 1.1 mph N1.8 kmh N 6.0 mph9.7 kmh 30.41 in1029.8 mb 0.00 in0.0 mm 0.00 in0.0 mm 0.01 in0.3 mm